Time;durP1;ratioP1;P1;durP2;ratioP2;P2;SDS_P1;SDS_P2;PMS_P1;PMS_P2;Temp;Humidity;BMP_temperature;BMP_pressure;BME280_temperature;BME280_humidity;BME280_pressure;Samples;Min_cycle;Max_cycle;Signal;HPM_P1;HPM_P2
2021/10/03 00:00:10;;;;;;;3.20;2.40;;;;;;;5.97;74.66;98104.41;117362;1175;69245;-75
2021/10/03 00:03:05;;;;;;;6.20;4.70;;;;;;;5.95;74.52;98102.94;117370;1177;59959;-72
2021/10/03 00:05:35;;;;;;;8.70;5.40;;;;;;;5.94;75.85;98102.45;117376;1175;59574;-73
2021/10/03 00:08:05;;;;;;;9.30;6.30;;;;;;;5.95;77.20;98097.55;117142;1176;71347;-72
2021/10/03 00:10:36;;;;;;;7.20;4.50;;;;;;;5.89;77.68;98100.73;117378;1175;69164;-72
2021/10/03 00:13:07;;;;;;;7.20;5.00;;;;;;;5.87;77.14;98101.33;117215;1176;68304;-73
2021/10/03 00:15:40;;;;;;;6.60;4.40;;;;;;;5.90;78.00;98103.48;117291;1175;59538;-73
2021/10/03 00:18:10;;;;;;;7.40;4.90;;;;;;;5.90;78.19;98099.31;117325;1175;59571;-73
2021/10/03 00:20:40;;;;;;;8.40;5.50;;;;;;;5.92;78.67;98096.98;117285;1175;70528;-73
2021/10/03 00:23:10;;;;;;;8.60;5.90;;;;;;;5.97;79.18;98093.36;117304;1175;69205;-74
2021/10/03 00:25:40;;;;;;;7.60;5.00;;;;;;;5.94;78.90;98094.67;117289;1176;69292;-74
2021/10/03 00:28:11;;;;;;;6.40;4.80;;;;;;;5.90;78.64;98089.11;117384;1175;59532;-73
2021/10/03 00:30:43;;;;;;;5.50;4.30;;;;;;;5.84;78.48;98084.16;117385;1176;59491;-72
2021/10/03 00:33:12;;;;;;;7.90;5.00;;;;;;;5.79;78.69;98080.91;117350;1176;70169;-72
2021/10/03 00:35:42;;;;;;;6.10;4.80;;;;;;;5.74;78.77;98079.95;117330;1175;68507;-72
2021/10/03 00:38:13;;;;;;;;;;;;;;;5.69;78.85;98074.80;117364;1177;68405;-73
2021/10/03 00:40:45;;;;;;;7.00;5.00;;;;;;;5.64;78.70;98071.38;117331;1176;59507;-74
2021/10/03 00:43:16;;;;;;;6.80;5.10;;;;;;;5.57;80.07;98069.91;117394;1176;59519;-73
2021/10/03 00:45:45;;;;;;;9.20;6.30;;;;;;;5.53;79.20;98073.21;117362;1175;69752;-73
2021/10/03 00:48:15;;;;;;;4.70;3.20;;;;;;;5.48;79.83;98078.09;117350;1175;69183;-72
2021/10/03 00:50:47;;;;;;;7.70;6.10;;;;;;;5.44;79.17;98078.10;117362;1176;69200;-73
2021/10/03 00:53:17;;;;;;;9.60;6.50;;;;;;;5.38;80.82;98080.73;117178;1176;59557;-72
2021/10/03 00:55:46;;;;;;;;;;;;;;;5.34;81.36;98077.61;117371;1176;59494;-73
2021/10/03 00:58:16;;;;;;;11.40;7.10;;;;;;;5.32;82.06;98080.30;117347;1175;71190;-73
2021/10/03 01:00:46;;;;;;;;;;;;;;;5.31;81.85;98085.00;117407;1175;68258;-72
2021/10/03 01:03:17;;;;;;;6.80;3.90;;;;;;;5.29;79.90;98085.09;117372;1176;69072;-72
2021/10/03 01:05:46;;;;;;;4.60;3.30;;;;;;;5.26;78.47;98080.89;117385;1176;59491;-73
2021/10/03 01:08:16;;;;;;;9.00;6.00;;;;;;;5.27;78.21;98076.00;117368;1175;59517;-72
2021/10/03 01:10:45;;;;;;;8.70;6.10;;;;;;;5.30;79.85;98074.83;117366;1176;70642;-73
2021/10/03 01:13:16;;;;;;;11.60;7.40;;;;;;;5.28;80.46;98077.55;117326;1177;69258;-73
2021/10/03 01:15:46;;;;;;;7.40;5.10;;;;;;;5.24;80.58;98079.97;117368;1176;68457;-74
2021/10/03 01:18:15;;;;;;;9.10;7.00;;;;;;;5.21;79.17;98076.29;117098;1176;59519;-73
2021/10/03 01:20:46;;;;;;;6.60;5.30;;;;;;;5.17;80.76;98081.10;116990;1177;59522;-72
2021/10/03 01:23:17;;;;;;;6.20;4.70;;;;;;;5.13;79.72;98082.46;117357;1176;70491;-72
2021/10/03 01:25:49;;;;;;;4.20;3.40;;;;;;;5.09;78.90;98076.73;117368;1176;68220;-73
2021/10/03 01:28:19;;;;;;;4.50;3.70;;;;;;;5.07;78.19;98077.52;117325;1166;69252;-73
2021/10/03 01:30:51;;;;;;;6.50;4.70;;;;;;;5.05;78.03;98076.05;117333;1175;59504;-72
2021/10/03 01:33:27;;;;;;;9.40;5.50;;;;;;;5.02;78.03;98077.87;117397;1176;59526;-71
2021/10/03 01:35:57;;;;;;;5.70;4.30;;;;;;;4.99;78.68;98079.38;117396;1175;70588;-72
2021/10/03 01:38:27;;;;;;;7.80;5.70;;;;;;;4.96;80.28;98075.36;117359;1177;68439;-72
2021/10/03 01:40:56;;;;;;;10.60;7.00;;;;;;;4.89;80.79;98076.88;117331;1175;67427;-73
2021/10/03 01:43:26;;;;;;;6.70;5.10;;;;;;;4.79;80.54;98074.83;117265;1175;59516;-73
2021/10/03 01:45:56;;;;;;;7.60;5.20;;;;;;;4.73;79.96;98080.41;117356;1175;59945;-73
2021/10/03 01:48:46;;;;;;;;;;;;;;;4.66;79.75;98082.58;117352;1177;70541;-73
2021/10/03 01:51:17;;;;;;;;;;;;;;;4.61;79.26;98084.31;117179;1177;69218;-71
2021/10/03 01:53:50;;;;;;;5.70;3.60;;;;;;;4.58;79.53;98091.02;117101;1177;68440;-73
2021/10/03 01:56:22;;;;;;;5.80;4.40;;;;;;;4.53;78.87;98087.39;116816;1179;59520;-74
2021/10/03 01:58:59;;;;;;;4.10;2.70;;;;;;;4.50;78.25;98082.83;116794;1179;59508;-72
2021/10/03 02:01:34;;;;;;;9.00;6.30;;;;;;;4.49;77.36;98079.44;117100;1176;71196;-72
2021/10/03 02:04:06;;;;;;;11.00;7.40;;;;;;;4.46;80.87;98076.63;117109;1177;69482;-73
2021/10/03 02:06:48;;;;;;;6.70;4.50;;;;;;;4.42;81.77;98077.13;116990;1177;68362;-73
2021/10/03 02:09:24;;;;;;;6.10;4.60;;;;;;;4.39;79.16;98078.95;117127;1177;59508;-71
2021/10/03 02:11:57;;;;;;;4.50;3.20;;;;;;;4.33;79.42;98083.12;116976;1177;59478;-72
2021/10/03 02:14:34;;;;;;;6.60;5.30;;;;;;;4.29;80.96;98085.20;117161;1176;71362;-72
2021/10/03 02:17:06;;;;;;;6.30;4.40;;;;;;;4.24;80.35;98090.19;117089;1176;68970;-73
2021/10/03 02:19:40;;;;;;;5.40;3.40;;;;;;;4.20;79.79;98086.36;116951;1168;69078;-73
2021/10/03 02:22:11;;;;;;;7.50;5.20;;;;;;;4.21;78.32;98086.33;116929;1177;59564;-74
2021/10/03 02:24:41;;;;;;;7.00;4.60;;;;;;;4.23;80.29;98081.75;117157;1177;59525;-73
2021/10/03 02:27:10;;;;;;;7.20;6.00;;;;;;;4.21;81.19;98082.20;117105;1176;70599;-73
2021/10/03 02:29:40;;;;;;;15.30;6.80;;;;;;;4.18;81.15;98084.91;117097;1176;69204;-72
2021/10/03 02:32:10;;;;;;;7.70;5.20;;;;;;;4.12;81.95;98084.23;117105;1169;69516;-71
2021/10/03 02:34:40;;;;;;;11.40;7.70;;;;;;;4.07;80.09;98084.95;117130;1177;59532;-73
2021/10/03 02:37:10;;;;;;;9.10;6.20;;;;;;;4.01;83.12;98084.64;117142;1177;59519;-73
2021/10/03 02:39:39;;;;;;;12.60;7.10;;;;;;;3.98;83.09;98083.90;116962;1177;71384;-74
2021/10/03 02:42:09;;;;;;;8.10;6.00;;;;;;;3.96;82.69;98086.39;117126;1177;69186;-74
2021/10/03 02:44:40;;;;;;;6.00;4.40;;;;;;;3.93;82.55;98088.36;117077;1177;68264;-72
2021/10/03 02:47:13;;;;;;;11.40;7.50;;;;;;;3.90;81.14;98089.17;117027;1177;59523;-74
2021/10/03 02:49:45;;;;;;;6.40;4.60;;;;;;;3.88;82.39;98088.90;116994;1177;59529;-73
2021/10/03 02:52:16;;;;;;;7.70;5.30;;;;;;;3.85;80.41;98086.59;116933;1177;71367;-72
2021/10/03 02:54:46;;;;;;;6.30;3.80;;;;;;;3.87;79.72;98089.44;117113;1177;69087;-72
2021/10/03 02:57:16;;;;;;;7.90;5.30;;;;;;;3.85;80.34;98093.66;117091;1177;67624;-72
2021/10/03 02:59:46;;;;;;;6.90;4.70;;;;;;;3.81;79.86;98100.17;117149;1177;59935;-72
2021/10/03 03:02:15;;;;;;;7.50;5.80;;;;;;;3.76;80.05;98104.67;116925;1177;59494;-72
2021/10/03 03:04:45;;;;;;;8.10;5.20;;;;;;;3.67;81.10;98103.09;116931;1176;71286;-73
2021/10/03 03:07:15;;;;;;;8.00;4.70;;;;;;;3.63;80.34;98098.06;116984;1177;68400;-73
2021/10/03 03:09:44;;;;;;;8.50;5.50;;;;;;;3.63;80.59;98099.07;117050;1177;69214;-72
2021/10/03 03:12:14;;;;;;;7.00;4.80;;;;;;;3.61;81.09;98095.35;116928;1177;59502;-73
2021/10/03 03:14:43;;;;;;;7.10;5.70;;;;;;;3.58;80.28;98096.98;116957;1177;59529;-72
2021/10/03 03:17:19;;;;;;;7.00;5.90;;;;;;;3.54;81.20;98090.76;116999;1177;70392;-73
2021/10/03 03:19:48;;;;;;;7.30;4.80;;;;;;;3.49;81.78;98089.02;116965;1177;69207;-72
2021/10/03 03:22:18;;;;;;;7.60;6.10;;;;;;;3.47;80.82;98089.10;117163;1177;69591;-72
2021/10/03 03:24:47;;;;;;;4.90;3.20;;;;;;;3.44;80.79;98094.88;116951;1177;59542;-75
2021/10/03 03:27:16;;;;;;;10.20;6.30;;;;;;;3.42;80.67;98097.52;116958;1177;59535;-73
2021/10/03 03:29:48;;;;;;;6.50;5.60;;;;;;;3.39;81.64;98095.92;116982;1176;70501;-73
2021/10/03 03:32:17;;;;;;;8.70;6.00;;;;;;;3.38;80.50;98099.94;117017;1176;68949;-73
2021/10/03 03:34:47;;;;;;;5.10;3.40;;;;;;;3.36;80.98;98092.23;117088;1177;69239;-71
2021/10/03 03:37:17;;;;;;;6.60;4.80;;;;;;;3.37;79.55;98089.77;116997;1176;59513;-72
2021/10/03 03:39:47;;;;;;;8.60;6.20;;;;;;;3.39;79.94;98088.52;117025;1176;59539;-72
2021/10/03 03:42:17;;;;;;;10.70;6.40;;;;;;;3.36;81.51;98085.84;116989;1177;71340;-72
2021/10/03 03:44:47;;;;;;;9.10;4.40;;;;;;;3.34;81.69;98089.55;117014;1177;68502;-71
2021/10/03 03:47:16;;;;;;;12.30;6.80;;;;;;;3.31;80.53;98087.39;117104;1176;68654;-72
2021/10/03 03:49:50;;;;;;;9.00;5.60;;;;;;;3.28;81.09;98087.65;116932;1177;59581;-72
2021/10/03 03:52:20;;;;;;;7.20;5.10;;;;;;;3.24;81.38;98089.67;117100;1176;59476;-72
2021/10/03 03:54:50;;;;;;;7.00;5.20;;;;;;;3.21;80.96;98088.91;117136;1177;70570;-72
2021/10/03 03:57:19;;;;;;;7.20;5.10;;;;;;;3.19;80.83;98091.23;117080;1176;69181;-72
2021/10/03 03:59:49;;;;;;;9.50;7.10;;;;;;;3.16;81.75;98091.67;117041;1175;68448;-72
2021/10/03 04:02:18;;;;;;;10.80;6.80;;;;;;;3.13;83.39;98091.41;117026;1177;59574;-72
2021/10/03 04:04:48;;;;;;;11.80;7.60;;;;;;;3.12;84.54;98094.21;116982;1176;59561;-72
2021/10/03 04:07:20;;;;;;;6.10;4.60;;;;;;;3.10;85.18;98096.86;117069;1176;71393;-72
2021/10/03 04:09:50;;;;;;;6.50;5.40;;;;;;;3.09;82.69;98101.04;117016;1177;68280;-72
2021/10/03 04:12:20;;;;;;;5.20;4.10;;;;;;;3.08;81.67;98109.15;117064;1177;69231;-72
2021/10/03 04:14:49;;;;;;;6.30;5.10;;;;;;;3.06;82.18;98113.01;117039;1176;59505;-72
2021/10/03 04:17:19;;;;;;;5.30;4.20;;;;;;;3.04;82.28;98112.52;117070;1176;59561;-72
2021/10/03 04:19:48;;;;;;;8.80;6.10;;;;;;;3.05;80.35;98114.05;117059;1177;71378;-72
2021/10/03 04:22:17;;;;;;;6.70;4.40;;;;;;;3.06;81.64;98114.02;117096;1176;69063;-71
2021/10/03 04:24:47;;;;;;;7.30;4.90;;;;;;;3.05;80.87;98113.36;117088;1177;68674;-73
2021/10/03 04:27:16;;;;;;;9.10;6.00;;;;;;;3.10;80.76;98117.17;117092;1177;59520;-71
2021/10/03 04:29:45;;;;;;;11.80;8.00;;;;;;;3.11;81.82;98115.27;117057;1177;59506;-71
2021/10/03 04:32:15;;;;;;;12.20;7.60;;;;;;;3.03;85.00;98121.70;117044;1176;70412;-71
2021/10/03 04:34:44;;;;;;;7.20;5.10;;;;;;;3.00;84.35;98122.83;117080;1176;68449;-71
2021/10/03 04:37:13;;;;;;;10.50;6.00;;;;;;;3.03;83.27;98123.06;117100;1176;68446;-71
2021/10/03 04:39:43;;;;;;;11.70;7.60;;;;;;;3.11;83.59;98126.61;117073;1177;59494;-72
2021/10/03 04:42:12;;;;;;;8.20;7.00;;;;;;;3.14;84.84;98131.17;117092;1176;59545;-72
2021/10/03 04:44:41;;;;;;;13.10;7.60;;;;;;;3.19;84.41;98130.34;117001;1177;71147;-72
2021/10/03 04:47:10;;;;;;;10.10;6.00;;;;;;;3.30;84.83;98134.81;117059;1177;68373;-72
2021/10/03 04:49:39;;;;;;;10.90;6.40;;;;;;;3.39;85.46;98133.66;117008;1176;68170;-73
2021/10/03 04:52:09;;;;;;;9.40;6.50;;;;;;;3.50;85.49;98136.21;117039;1177;59533;-72
2021/10/03 04:54:38;;;;;;;7.40;5.30;;;;;;;3.62;85.31;98135.14;117052;1176;59535;-71
2021/10/03 04:57:07;;;;;;;8.00;5.90;;;;;;;3.68;84.70;98138.55;117010;1177;70626;-73
2021/10/03 04:59:36;;;;;;;10.50;6.70;;;;;;;3.75;84.38;98138.49;117036;1177;68626;-72
2021/10/03 05:02:05;;;;;;;9.70;6.90;;;;;;;3.84;84.33;98131.29;117063;1177;69247;-72
2021/10/03 05:04:34;;;;;;;14.00;8.80;;;;;;;4.02;84.51;98139.79;117053;1177;59535;-72
2021/10/03 05:07:04;;;;;;;9.60;6.70;;;;;;;4.28;83.92;98136.11;117053;1174;59497;-72
2021/10/03 05:09:33;;;;;;;9.50;6.30;;;;;;;4.64;83.03;98136.16;116907;1177;70586;-72
2021/10/03 05:12:02;;;;;;;9.00;5.50;;;;;;;5.13;82.28;98134.82;117006;1176;69340;-72
2021/10/03 05:14:31;;;;;;;7.20;5.40;;;;;;;5.69;81.78;98138.77;116906;1176;69350;-72
2021/10/03 05:17:00;;;;;;;11.20;8.00;;;;;;;6.31;81.67;98145.82;117085;1177;59488;-73
2021/10/03 05:19:29;;;;;;;8.00;5.80;;;;;;;6.71;75.87;98145.08;116930;1177;59536;-73
2021/10/03 05:21:59;;;;;;;7.10;5.30;;;;;;;7.05;78.15;98151.16;116951;1177;71413;-72
2021/10/03 05:24:29;;;;;;;8.70;6.40;;;;;;;7.33;73.95;98144.80;117110;1176;68501;-72
2021/10/03 05:26:59;;;;;;;8.40;4.80;;;;;;;7.57;74.68;98140.84;117068;1177;68852;-73
2021/10/03 05:29:28;;;;;;;11.30;8.30;;;;;;;8.01;72.63;98143.88;117050;1169;59880;-73
2021/10/03 05:31:57;;;;;;;8.80;6.00;;;;;;;8.42;70.70;98143.69;117065;1177;59545;-72
2021/10/03 05:34:26;;;;;;;10.10;7.10;;;;;;;8.88;73.29;98144.35;117041;1176;71370;-72
2021/10/03 05:36:55;;;;;;;8.40;6.40;;;;;;;9.12;65.74;98142.54;117076;1177;68437;-72
2021/10/03 05:39:24;;;;;;;8.60;6.20;;;;;;;9.30;65.86;98148.64;117014;1177;67498;-72
2021/10/03 05:41:53;;;;;;;9.50;7.40;;;;;;;9.72;67.45;98160.86;116925;1177;59520;-74
2021/10/03 05:44:21;;;;;;;14.10;9.80;;;;;;;10.17;62.63;98163.88;116973;1177;59680;-73
2021/10/03 05:46:50;;;;;;;11.80;9.00;;;;;;;10.62;65.19;98163.23;117086;1176;71422;-74
2021/10/03 05:49:19;;;;;;;19.80;13.50;;;;;;;11.09;61.03;98153.05;117076;1177;69031;-73
2021/10/03 05:51:48;;;;;;;17.80;11.90;;;;;;;11.41;59.59;98146.45;117068;1177;68656;-73
2021/10/03 05:54:18;;;;;;;12.20;9.10;;;;;;;11.73;61.00;98154.48;117102;1177;59495;-73
2021/10/03 05:56:47;;;;;;;24.80;16.70;;;;;;;12.03;57.86;98154.13;117136;1177;59561;-73
2021/10/03 05:59:16;;;;;;;15.00;12.20;;;;;;;12.09;55.34;98159.11;117103;1176;72055;-73
2021/10/03 06:01:44;;;;;;;22.50;16.60;;;;;;;12.32;59.78;98159.09;117091;1177;68474;-73
2021/10/03 06:04:14;;;;;;;15.60;11.90;;;;;;;12.51;56.22;98157.13;117133;1176;69402;-75
2021/10/03 06:06:43;;;;;;;18.10;12.60;;;;;;;12.64;58.66;98157.61;117058;1176;59509;-75
2021/10/03 06:09:12;;;;;;;15.50;11.20;;;;;;;12.78;58.94;98151.77;117172;1177;59532;-73
2021/10/03 06:11:41;;;;;;;16.80;12.50;;;;;;;12.94;58.39;98152.21;117166;1177;70034;-74
2021/10/03 06:14:10;;;;;;;13.60;10.50;;;;;;;13.09;55.96;98146.73;117174;1177;69069;-73
2021/10/03 06:16:42;;;;;;;11.70;7.00;;;;;;;13.25;54.68;98143.04;117170;1176;69703;-73
2021/10/03 06:19:11;;;;;;;10.20;7.20;;;;;;;13.68;54.72;98150.03;117167;1177;59516;-73
2021/10/03 06:21:40;;;;;;;10.20;8.10;;;;;;;14.08;54.60;98156.67;117151;1177;59486;-73
2021/10/03 06:24:10;;;;;;;9.50;6.90;;;;;;;14.42;52.20;98157.80;117072;1177;71492;-73
2021/10/03 06:26:39;;;;;;;10.20;8.50;;;;;;;14.81;52.17;98160.27;117176;1177;69004;-73
2021/10/03 06:29:08;;;;;;;8.70;6.60;;;;;;;14.90;50.07;98160.10;117114;1177;68547;-73
2021/10/03 06:31:37;;;;;;;6.10;5.10;;;;;;;15.10;49.72;98162.17;117180;1177;59520;-76
2021/10/03 06:34:06;;;;;;;8.30;6.30;;;;;;;15.35;49.71;98162.73;117167;1174;59540;-73
2021/10/03 06:36:35;;;;;;;8.90;7.40;;;;;;;15.75;48.87;98160.30;117190;1177;72014;-73
2021/10/03 06:39:05;;;;;;;12.00;8.60;;;;;;;15.93;46.97;98156.17;117174;1177;68558;-73
2021/10/03 06:41:35;;;;;;;6.70;6.10;;;;;;;16.12;48.12;98153.02;117115;1177;69221;-74
2021/10/03 06:44:06;;;;;;;10.60;8.50;;;;;;;16.54;48.29;98151.08;116973;1177;59570;-73
2021/10/03 06:46:35;;;;;;;13.20;10.50;;;;;;;16.77;48.85;98155.11;117173;1177;59541;-74
2021/10/03 06:49:04;;;;;;;11.60;8.80;;;;;;;16.46;46.11;98155.73;117179;1177;71181;-73
2021/10/03 06:51:35;;;;;;;8.90;7.00;;;;;;;16.21;49.10;98157.02;116995;1177;69050;-73
2021/10/03 06:54:04;;;;;;;6.80;5.70;;;;;;;16.19;50.04;98155.60;117009;1177;69673;-73
2021/10/03 06:56:33;;;;;;;11.50;8.80;;;;;;;16.20;48.15;98154.96;117131;1177;59535;-73
2021/10/03 06:59:03;;;;;;;9.10;7.90;;;;;;;16.00;47.26;98153.31;116887;1179;59538;-74
2021/10/03 07:01:33;;;;;;;10.20;7.50;;;;;;;15.65;46.68;98150.67;117186;1177;70593;-73
2021/10/03 07:04:02;;;;;;;;;;;;;;;14.89;47.16;98149.63;117198;1177;67585;-75
2021/10/03 07:06:31;;;;;;;10.30;7.30;;;;;;;15.11;47.84;98144.55;116984;1177;68685;-73
2021/10/03 07:09:01;;;;;;;4.70;4.10;;;;;;;15.40;47.89;98145.20;117135;1177;59530;-72
2021/10/03 07:11:30;;;;;;;6.40;5.50;;;;;;;15.70;46.70;98150.66;117124;1177;59529;-72
2021/10/03 07:13:59;;;;;;;6.70;5.30;;;;;;;15.86;46.62;98153.02;116988;1177;71532;-74
2021/10/03 07:16:28;;;;;;;6.80;5.20;;;;;;;16.00;45.93;98156.42;117140;1176;69319;-73
2021/10/03 07:18:56;;;;;;;6.10;4.50;;;;;;;15.77;45.92;98155.02;117102;1177;67587;-73
2021/10/03 07:21:25;;;;;;;6.20;4.90;;;;;;;16.24;45.84;98151.98;117081;1176;59487;-73
2021/10/03 07:23:56;;;;;;;5.80;5.20;;;;;;;16.45;44.86;98155.00;116971;1177;59493;-73
2021/10/03 07:26:25;;;;;;;6.10;4.20;;;;;;;16.95;45.51;98155.95;117031;1177;70838;-74
2021/10/03 07:28:54;;;;;;;6.40;5.20;;;;;;;17.30;44.03;98152.87;117097;1177;68475;-72
2021/10/03 07:31:23;;;;;;;8.50;5.20;;;;;;;17.04;43.09;98149.71;117014;1177;69304;-75
2021/10/03 07:33:52;;;;;;;5.60;3.50;;;;;;;17.57;42.86;98148.90;117160;1177;59510;-73
2021/10/03 07:36:21;;;;;;;5.80;4.00;;;;;;;18.01;42.63;98152.67;117063;1177;59487;-73
2021/10/03 07:38:51;;;;;;;9.30;5.50;;;;;;;18.17;41.86;98150.38;117037;1176;71375;-73
2021/10/03 07:41:21;;;;;;;7.40;5.00;;;;;;;17.70;41.75;98147.74;117090;1177;69263;-73
2021/10/03 07:43:50;;;;;;;;;;;;;;;18.03;41.24;98150.55;117178;1177;68506;-73
2021/10/03 07:46:20;;;;;;;4.60;3.70;;;;;;;18.64;40.02;98155.71;117101;1177;59546;-72
2021/10/03 07:48:50;;;;;;;7.30;3.70;;;;;;;18.78;40.17;98155.77;117170;1177;59538;-74
2021/10/03 07:51:19;;;;;;;5.70;4.30;;;;;;;19.42;39.29;98155.53;117034;1177;71525;-73
2021/10/03 07:53:49;;;;;;;5.70;4.80;;;;;;;19.77;38.20;98152.27;116943;1176;69153;-74
2021/10/03 07:56:17;;;;;;;;;;;;;;;19.82;37.59;98154.41;117110;1177;68272;-73
2021/10/03 07:58:46;;;;;;;8.50;5.80;;;;;;;20.37;37.45;98155.33;117121;1168;59504;-74
2021/10/03 08:01:16;;;;;;;8.20;7.30;;;;;;;20.94;35.37;98158.40;117124;1177;59500;-75
2021/10/03 08:03:45;;;;;;;4.40;3.50;;;;;;;20.94;34.06;98161.27;117094;1177;71339;-73
2021/10/03 08:06:17;;;;;;;5.10;4.00;;;;;;;21.04;31.28;98153.35;117052;1177;69240;-74
2021/10/03 08:08:46;;;;;;;6.30;4.20;;;;;;;21.30;32.07;98151.90;117138;1174;69272;-73
2021/10/03 08:11:16;;;;;;;4.80;3.70;;;;;;;21.63;31.92;98148.34;116981;1177;59499;-73
2021/10/03 08:13:44;;;;;;;5.60;4.20;;;;;;;22.11;29.16;98150.86;116989;1177;59527;-73
2021/10/03 08:16:14;;;;;;;;;;;;;;;21.44;30.16;98148.07;116944;1177;71582;-73
2021/10/03 08:18:46;;;;;;;4.20;3.20;;;;;;;20.97;30.48;98146.39;117095;1177;69164;-73
2021/10/03 08:21:17;;;;;;;7.10;4.00;;;;;;;20.59;31.07;98144.33;117040;1176;69262;-75
2021/10/03 08:23:46;;;;;;;5.10;3.70;;;;;;;20.47;31.09;98144.15;117053;1176;59593;-73
2021/10/03 08:26:15;;;;;;;5.30;4.40;;;;;;;20.88;30.15;98146.38;117060;1176;59519;-74
2021/10/03 08:28:44;;;;;;;6.30;3.70;;;;;;;21.21;30.27;98142.18;117005;1170;71417;-73
2021/10/03 08:31:14;;;;;;;4.20;3.70;;;;;;;21.54;29.29;98145.13;117064;1176;68482;-74
2021/10/03 08:33:43;;;;;;;;;;;;;;;21.62;29.35;98144.23;116992;1176;69222;-74
2021/10/03 08:36:14;;;;;;;4.70;3.10;;;;;;;22.12;28.81;98146.19;117000;1176;59514;-73
2021/10/03 08:38:43;;;;;;;4.70;3.80;;;;;;;22.32;28.60;98150.69;117085;1177;59523;-73
2021/10/03 08:41:13;;;;;;;5.20;4.20;;;;;;;22.16;28.29;98146.77;117012;1177;71491;-74
2021/10/03 08:43:42;;;;;;;5.00;3.70;;;;;;;22.37;28.66;98142.75;116987;1177;68601;-72
2021/10/03 08:46:17;;;;;;;7.20;4.20;;;;;;;22.27;28.78;98141.67;116874;1177;68242;-74
2021/10/03 08:48:46;;;;;;;5.70;3.80;;;;;;;22.28;28.49;98144.48;116988;1177;59488;-73
2021/10/03 08:51:15;;;;;;;;;;;;;;;22.50;28.67;98143.05;117102;1177;59521;-73
2021/10/03 08:53:45;;;;;;;5.90;3.60;;;;;;;22.43;29.19;98139.02;116939;1177;70609;-75
2021/10/03 08:56:16;;;;;;;5.10;4.00;;;;;;;23.17;27.68;98131.98;116902;1177;68492;-74
2021/10/03 08:58:45;;;;;;;6.90;4.00;;;;;;;22.62;27.76;98129.66;116998;1177;68614;-76
2021/10/03 09:01:15;;;;;;;4.10;3.30;;;;;;;22.65;28.77;98126.33;117031;1177;59547;-77
2021/10/03 09:03:44;;;;;;;5.40;4.30;;;;;;;23.08;27.83;98128.18;117008;1177;59535;-74
2021/10/03 09:06:14;;;;;;;5.00;4.00;;;;;;;22.32;28.39;98130.35;116984;1177;70604;-76
2021/10/03 09:08:45;;;;;;;3.80;2.90;;;;;;;22.62;28.48;98127.16;117016;1177;69454;-74
2021/10/03 09:11:16;;;;;;;5.20;4.20;;;;;;;23.59;27.17;98122.25;117072;1177;69308;-74
2021/10/03 09:13:49;;;;;;;6.00;3.80;;;;;;;24.01;27.43;98124.66;117066;1177;59539;-77
2021/10/03 09:16:29;;;;;;;5.20;3.80;;;;;;;24.62;26.54;98122.32;117092;1177;59531;-76
2021/10/03 09:19:10;;;;;;;5.40;3.60;;;;;;;24.98;25.42;98119.73;117015;1177;71376;-74
2021/10/03 09:21:41;;;;;;;4.90;3.00;;;;;;;25.23;24.78;98113.83;117081;1177;68492;-74
2021/10/03 09:24:15;;;;;;;4.10;3.40;;;;;;;25.40;23.74;98113.40;117062;1177;68462;-74
2021/10/03 09:27:06;;;;;;;6.20;3.40;;;;;;;25.72;24.67;98107.41;117062;1177;59523;-77
2021/10/03 09:29:37;;;;;;;5.20;3.40;;;;;;;26.20;24.49;98103.48;117090;1177;59520;-74
2021/10/03 09:32:20;;;;;;;5.90;3.60;;;;;;;26.50;23.28;98105.30;117089;1177;71410;-75
2021/10/03 09:34:52;;;;;;;4.90;3.70;;;;;;;26.67;22.54;98106.06;117040;1177;67307;-76
2021/10/03 09:37:22;;;;;;;3.80;3.10;;;;;;;26.23;23.31;98103.25;117092;1176;68503;-74
2021/10/03 09:40:12;;;;;;;3.60;2.90;;;;;;;26.52;22.62;98107.75;117052;1176;59881;-74
2021/10/03 09:42:55;;;;;;;5.10;3.30;;;;;;;26.31;22.62;98105.26;117110;1177;59517;-73
2021/10/03 09:45:24;;;;;;;4.80;3.50;;;;;;;24.88;24.05;98097.35;117040;1176;71376;-74
2021/10/03 09:48:06;;;;;;;5.20;3.70;;;;;;;24.65;24.97;98095.20;117071;1177;69332;-74
2021/10/03 09:50:40;;;;;;;3.80;3.10;;;;;;;24.41;25.25;98099.34;117042;1177;69158;-75
2021/10/03 09:53:12;;;;;;;4.50;3.40;;;;;;;24.51;25.50;98097.28;117057;1176;59532;-73
2021/10/03 09:55:41;;;;;;;6.70;4.20;;;;;;;23.20;26.57;98098.70;117103;1177;59587;-74
2021/10/03 09:58:12;;;;;;;;;;;;;;;22.08;28.39;98093.71;117068;1177;71468;-74
2021/10/03 10:00:42;;;;;;;4.80;4.20;;;;;;;22.76;27.73;98089.76;116960;1177;69066;-77
2021/10/03 10:03:13;;;;;;;3.50;2.90;;;;;;;22.92;27.56;98084.52;117044;1170;69425;-75
2021/10/03 10:05:42;;;;;;;4.10;3.30;;;;;;;23.31;27.32;98077.83;117058;1176;59488;-75
2021/10/03 10:08:11;;;;;;;4.80;3.40;;;;;;;23.20;27.59;98078.16;117074;1177;59540;-75
2021/10/03 10:10:40;;;;;;;4.60;3.40;;;;;;;23.57;27.12;98077.21;116998;1176;71549;-75
2021/10/03 10:13:13;;;;;;;;;;;;;;;24.53;25.70;98080.91;117086;1177;68498;-75
2021/10/03 10:15:42;;;;;;;6.00;3.40;;;;;;;25.11;24.62;98076.84;117041;1177;68362;-75
2021/10/03 10:18:26;;;;;;;3.10;2.20;;;;;;;25.45;24.01;98077.74;116978;1177;59535;-75
2021/10/03 10:20:56;;;;;;;3.80;2.60;;;;;;;25.71;23.75;98073.02;117076;1177;59599;-74
2021/10/03 10:23:30;;;;;;;3.90;3.10;;;;;;;26.46;22.95;98075.56;117131;1177;71981;-75
2021/10/03 10:25:59;;;;;;;4.20;3.10;;;;;;;26.90;22.01;98066.08;117041;1177;69317;-75
2021/10/03 10:28:28;;;;;;;4.30;2.90;;;;;;;27.33;21.80;98055.38;117032;1177;69244;-73
2021/10/03 10:31:08;;;;;;;4.70;3.30;;;;;;;27.57;21.55;98053.12;117094;1174;59504;-74
2021/10/03 10:34:07;;;;;;;3.90;2.80;;;;;;;28.23;21.04;98047.45;117097;1177;59555;-75
2021/10/03 10:36:52;;;;;;;3.90;3.10;;;;;;;28.52;20.37;98042.73;116596;1180;70639;-75
2021/10/03 10:39:23;;;;;;;4.20;3.00;;;;;;;28.43;20.54;98041.48;116566;1180;68412;-74
2021/10/03 10:41:55;;;;;;;3.60;2.70;;;;;;;28.59;19.74;98040.28;116594;1182;69253;-74
2021/10/03 10:44:24;;;;;;;5.10;2.90;;;;;;;28.66;19.23;98038.52;116511;1181;59589;-75
2021/10/03 10:46:54;;;;;;;4.80;3.30;;;;;;;28.55;19.35;98035.86;116567;1180;59525;-75
2021/10/03 10:49:37;;;;;;;4.00;3.00;;;;;;;28.29;19.76;98033.05;116552;1180;70711;-76
2021/10/03 10:52:18;;;;;;;3.00;2.30;;;;;;;28.15;19.68;98033.46;116585;1181;69495;-74
2021/10/03 10:54:59;;;;;;;4.00;3.00;;;;;;;28.26;19.77;98030.20;116495;1181;69040;-77
2021/10/03 10:57:30;;;;;;;3.70;2.60;;;;;;;28.46;19.11;98027.61;116415;1182;59637;-76
2021/10/03 11:00:22;;;;;;;4.30;2.80;;;;;;;28.84;18.46;98023.53;116605;1171;59702;-77
2021/10/03 11:02:55;;;;;;;4.70;2.50;;;;;;;28.67;18.78;98019.94;116572;1182;71960;-76
2021/10/03 11:05:36;;;;;;;4.20;2.90;;;;;;;29.02;18.75;98018.98;116566;1180;69656;-75
2021/10/03 11:08:20;;;;;;;4.30;3.30;;;;;;;29.79;18.81;98017.65;116546;1181;68900;-75
2021/10/03 11:10:58;;;;;;;3.80;2.50;;;;;;;30.57;18.51;98014.77;116552;1180;59609;-74
2021/10/03 11:13:46;;;;;;;4.40;3.20;;;;;;;30.60;17.72;98010.13;116721;1177;59465;-75
2021/10/03 11:16:28;;;;;;;5.00;3.40;;;;;;;28.58;19.56;98008.49;117184;1176;71448;-75
2021/10/03 11:19:16;;;;;;;5.10;3.60;;;;;;;28.25;20.06;98004.23;117037;1178;69237;-75
2021/10/03 11:21:51;;;;;;;3.50;2.50;;;;;;;29.84;18.83;98004.39;117051;1177;69245;-75
2021/10/03 11:24:26;;;;;;;5.10;3.40;;;;;;;30.83;18.23;98007.34;117057;1177;59525;-75
2021/10/03 11:26:59;;;;;;;4.10;3.00;;;;;;;30.13;17.88;98003.55;116993;1177;59545;-75
2021/10/03 11:29:29;;;;;;;4.20;2.50;;;;;;;30.61;17.58;97997.84;117045;1177;71484;-75
2021/10/03 11:32:00;;;;;;;4.30;3.30;;;;;;;31.41;17.24;97993.70;116998;1177;69231;-75
2021/10/03 11:34:47;;;;;;;4.10;2.80;;;;;;;31.06;17.34;97995.67;117247;1173;69227;-76
2021/10/03 11:37:28;;;;;;;3.80;2.80;;;;;;;31.86;16.16;97998.62;117348;1177;59611;-75
2021/10/03 11:39:58;;;;;;;3.50;2.70;;;;;;;31.29;16.73;97993.52;117400;1176;59491;-76
2021/10/03 11:42:36;;;;;;;3.70;3.10;;;;;;;30.87;17.20;97987.83;117391;1176;71469;-75
2021/10/03 11:45:07;;;;;;;4.30;3.30;;;;;;;31.08;17.48;97987.34;117291;1177;69181;-75
2021/10/03 11:47:37;;;;;;;4.80;3.10;;;;;;;30.07;17.45;97989.36;117347;1176;68628;-77
2021/10/03 11:50:08;;;;;;;4.50;3.40;;;;;;;30.76;17.17;97982.52;117144;1177;59480;-75